Time;durP1;ratioP1;P1;durP2;ratioP2;P2;SDS_P1;SDS_P2;PMS_P1;PMS_P2;Temp;Humidity;BMP_temperature;BMP_pressure;BME280_temperature;BME280_humidity;BME280_pressure;Samples;Min_cycle;Max_cycle;Signal;HPM_P1;HPM_P2
2022/08/07 00:02:10;;;;;;;36.40;17.25;;;;;;;21.54;65.83;100310.88;5046913;28;20049;-73
2022/08/07 00:04:59;;;;;;;34.05;15.85;;;;;;;21.71;65.59;100335.31;5041947;28;20044;-74
2022/08/07 00:07:29;;;;;;;;;;;;;;;21.67;65.55;100337.22;5042669;28;20053;-74
2022/08/07 00:10:07;;;;;;;37.60;17.05;;;;;;;21.81;65.26;100336.81;5046159;28;19924;-72
2022/08/07 00:12:55;;;;;;;33.55;15.82;;;;;;;21.76;65.05;100332.22;5044208;28;20509;-73
2022/08/07 00:15:29;;;;;;;34.03;16.77;;;;;;;21.78;65.23;100315.63;5048948;28;20067;-74
2022/08/07 00:18:17;;;;;;;31.25;15.57;;;;;;;21.71;65.56;100326.81;5046654;28;20549;-74
2022/08/07 00:20:50;;;;;;;32.85;16.98;;;;;;;21.68;65.77;100330.34;5034666;28;20489;-74
2022/08/07 00:23:17;;;;;;;33.92;16.27;;;;;;;21.66;65.72;100330.69;5046029;28;20136;-74
2022/08/07 00:25:47;;;;;;;43.10;17.15;;;;;;;21.69;65.79;100326.31;5042418;28;20055;-73
2022/08/07 00:28:27;;;;;;;35.95;16.85;;;;;;;21.66;65.55;100299.44;5043034;28;20061;-74
2022/08/07 00:31:06;;;;;;;32.45;15.45;;;;;;;21.73;65.70;100313.03;5045445;28;20045;-73
2022/08/07 00:33:41;;;;;;;36.42;16.35;;;;;;;21.72;65.42;100303.69;5040564;28;20461;-73
2022/08/07 00:36:13;;;;;;;33.97;15.55;;;;;;;21.84;65.60;100317.00;5045711;28;20415;-74
2022/08/07 00:38:39;;;;;;;36.95;15.57;;;;;;;21.86;65.42;100308.94;5056679;28;20080;-73
2022/08/07 00:41:06;;;;;;;34.55;15.68;;;;;;;21.92;65.28;100296.13;5056152;28;20084;-73
2022/08/07 00:43:40;;;;;;;28.08;14.63;;;;;;;21.88;65.38;100294.34;5053094;28;20119;-73
2022/08/07 00:46:26;;;;;;;25.08;14.05;;;;;;;21.79;65.16;100280.31;5052413;28;20482;-73
2022/08/07 00:48:53;;;;;;;29.27;13.82;;;;;;;21.82;65.20;100287.31;5050682;28;20498;-74
2022/08/07 00:51:20;;;;;;;28.00;14.15;;;;;;;21.74;65.26;100280.56;5051300;28;20480;-73
2022/08/07 00:53:48;;;;;;;27.08;15.00;;;;;;;21.76;65.22;100276.19;5051154;28;20569;-74
2022/08/07 00:56:22;;;;;;;30.27;15.52;;;;;;;21.77;65.03;100251.44;5050172;28;20193;-73
2022/08/07 00:58:56;;;;;;;32.92;15.15;;;;;;;22.04;64.81;100277.34;5049333;28;20073;-74
2022/08/07 01:01:23;;;;;;;30.83;14.30;;;;;;;21.95;64.76;100264.13;5042414;28;20068;-74
2022/08/07 01:03:50;;;;;;;30.75;14.38;;;;;;;21.73;64.96;100217.22;5051538;28;20055;-74
2022/08/07 01:06:26;;;;;;;30.42;15.45;;;;;;;22.08;64.57;100278.25;5044935;28;20136;-73
2022/08/07 01:08:53;;;;;;;30.80;15.98;;;;;;;21.89;64.35;100259.91;5032400;28;20452;-73
2022/08/07 01:11:24;;;;;;;28.10;14.30;;;;;;;21.90;65.04;100255.03;5050293;28;20049;-73
2022/08/07 01:14:11;;;;;;;32.95;15.20;;;;;;;22.04;64.84;100271.66;5049148;28;20053;-73
2022/08/07 01:16:42;;;;;;;36.75;16.95;;;;;;;22.06;64.96;100270.09;5050695;28;20433;-74
2022/08/07 01:19:15;;;;;;;34.72;15.13;;;;;;;22.09;64.91;100265.72;5050435;28;20465;-73
2022/08/07 01:21:47;;;;;;;36.22;15.20;;;;;;;21.98;64.40;100251.19;5049678;28;20045;-73
2022/08/07 01:24:15;;;;;;;32.03;15.00;;;;;;;22.01;64.13;100265.50;5046275;28;20056;-73
2022/08/07 01:26:49;;;;;;;35.10;15.50;;;;;;;21.84;64.57;100256.50;5048981;28;20061;-73
2022/08/07 01:29:21;;;;;;;38.42;17.10;;;;;;;21.80;64.56;100262.06;5047932;28;20055;-73
2022/08/07 01:31:49;;;;;;;32.78;15.57;;;;;;;21.65;65.02;100255.19;5050166;28;20131;-74
2022/08/07 01:34:16;;;;;;;37.08;15.48;;;;;;;21.75;64.78;100262.34;5051520;28;20467;-74
2022/08/07 01:36:45;;;;;;;30.30;14.50;;;;;;;21.69;65.07;100272.31;5043029;28;20566;-71
2022/08/07 01:39:24;;;;;;;37.97;15.70;;;;;;;21.49;65.05;100246.59;5048257;28;20045;-73
2022/08/07 01:42:06;;;;;;;36.45;14.80;;;;;;;21.51;65.20;100249.91;5048420;28;20045;-73
2022/08/07 01:44:54;;;;;;;32.90;15.60;;;;;;;21.64;65.20;100253.53;5050656;28;20425;-74
2022/08/07 01:47:21;;;;;;;36.58;16.40;;;;;;;21.69;65.18;100252.44;5049543;28;20041;-73
2022/08/07 01:50:08;;;;;;;34.88;14.80;;;;;;;21.85;64.68;100253.28;5049304;28;20057;-74
2022/08/07 01:52:37;;;;;;;31.20;15.82;;;;;;;21.80;65.12;100242.19;5048501;28;20044;-73
2022/08/07 01:55:16;;;;;;;38.10;16.77;;;;;;;21.78;65.13;100233.22;5047893;28;20516;-73
2022/08/07 01:57:51;;;;;;;33.45;13.93;;;;;;;21.78;65.12;100224.69;5043023;28;20088;-73
2022/08/07 02:00:33;;;;;;;43.08;15.98;;;;;;;21.84;64.69;100223.19;5048408;28;20060;-74
2022/08/07 02:03:13;;;;;;;29.48;14.90;;;;;;;21.90;64.65;100227.44;5048847;28;20051;-73
2022/08/07 02:06:02;;;;;;;33.45;15.23;;;;;;;21.84;64.77;100213.84;5064152;28;20459;-74
2022/08/07 02:08:52;;;;;;;39.47;15.27;;;;;;;22.02;64.71;100226.53;5046227;28;20052;-74
2022/08/07 02:11:20;;;;;;;27.58;14.45;;;;;;;22.02;64.40;100229.38;5046417;28;20048;-74
2022/08/07 02:14:09;;;;;;;36.30;16.30;;;;;;;21.82;64.45;100193.50;5044125;28;20056;-74
2022/08/07 02:16:57;;;;;;;40.47;16.33;;;;;;;22.01;64.31;100234.22;5050619;28;20049;-74
2022/08/07 02:19:24;;;;;;;33.97;14.75;;;;;;;21.72;64.49;100217.59;5061802;28;20091;-74
2022/08/07 02:22:13;;;;;;;37.58;15.30;;;;;;;21.80;64.38;100227.97;5048801;28;20044;-74
2022/08/07 02:24:45;;;;;;;29.05;14.48;;;;;;;21.84;64.93;100226.03;5049813;28;20135;-74
2022/08/07 02:27:17;;;;;;;41.78;17.30;;;;;;;21.91;64.55;100233.94;5048956;28;20064;-72
2022/08/07 02:29:46;;;;;;;28.80;14.23;;;;;;;21.95;64.71;100235.69;5048402;28;20072;-73
2022/08/07 02:32:21;;;;;;;35.60;13.55;;;;;;;22.00;64.63;100232.56;5049393;28;20049;-74
2022/08/07 02:34:50;;;;;;;36.72;14.30;;;;;;;22.01;64.53;100234.22;5048230;28;20056;-74
2022/08/07 02:37:19;;;;;;;42.30;17.25;;;;;;;22.07;64.28;100233.97;5049529;28;20091;-74
2022/08/07 02:39:49;;;;;;;31.85;13.63;;;;;;;21.97;64.37;100210.56;5048045;28;20053;-73
2022/08/07 02:42:36;;;;;;;30.38;15.18;;;;;;;21.95;64.51;100220.66;5047094;28;20048;-73
2022/08/07 02:45:08;;;;;;;33.05;14.88;;;;;;;22.04;64.62;100229.00;5044539;28;20056;-74
2022/08/07 02:47:54;;;;;;;;;;;;;;;22.01;64.59;100234.22;5048050;28;20061;-74
2022/08/07 02:50:25;;;;;;;;;;;;;;;21.88;64.39;100229.81;5046876;28;20448;-72
2022/08/07 02:53:03;;;;;;;39.42;15.82;;;;;;;21.71;64.46;100224.50;5047866;28;20426;-73
2022/08/07 02:55:36;;;;;;;36.85;15.95;;;;;;;21.57;64.41;100202.16;5040113;28;20057;-73
2022/08/07 02:58:24;;;;;;;37.63;17.40;;;;;;;21.57;64.88;100221.22;5046644;28;20049;-73
2022/08/07 03:00:56;;;;;;;36.60;16.77;;;;;;;21.56;65.17;100222.44;5045573;28;20084;-73
2022/08/07 03:03:26;;;;;;;39.50;16.75;;;;;;;21.51;65.30;100221.50;5044513;28;20106;-74
2022/08/07 03:06:16;;;;;;;43.63;17.10;;;;;;;21.40;65.41;100231.75;5047330;28;20048;-74
2022/08/07 03:09:01;;;;;;;39.97;17.60;;;;;;;21.37;65.29;100218.25;5048189;28;20493;-74
2022/08/07 03:11:28;;;;;;;38.20;17.45;;;;;;;21.31;65.44;100216.81;5048478;28;20143;-74
2022/08/07 03:14:00;;;;;;;45.75;18.77;;;;;;;21.33;65.68;100220.13;5044555;28;20053;-73
2022/08/07 03:16:31;;;;;;;36.77;15.87;;;;;;;21.21;65.72;100186.94;5046460;28;20574;-73
2022/08/07 03:18:59;;;;;;;38.35;15.73;;;;;;;21.30;65.67;100218.03;5046850;28;20131;-74
2022/08/07 03:21:35;;;;;;;42.85;16.30;;;;;;;21.35;65.72;100220.63;5041785;28;20064;-74
2022/08/07 03:28:02;;;;;;;36.35;16.23;;;;;;;21.31;65.80;100211.16;4973791;28;20585;-74
2022/08/07 03:31:17;;;;;;;30.00;14.80;;;;;;;21.41;65.60;100216.34;4983356;28;20573;-74
2022/08/07 03:33:40;;;;;;;35.53;15.32;;;;;;;21.25;65.66;100189.88;4982321;28;20046;-74
2022/08/07 03:36:09;;;;;;;36.85;16.45;;;;;;;21.35;65.40;100216.97;4983171;28;20082;-73
2022/08/07 03:38:39;;;;;;;37.40;15.57;;;;;;;21.01;65.75;100163.22;4984587;28;20585;-73
2022/08/07 03:41:08;;;;;;;32.85;16.70;;;;;;;21.32;65.70;100207.13;4977997;28;20138;-74
2022/08/07 03:43:37;;;;;;;38.53;16.05;;;;;;;21.27;65.52;100187.50;4984035;28;20396;-74
2022/08/07 03:46:10;;;;;;;34.92;15.43;;;;;;;21.42;65.51;100223.66;4980375;28;20046;-74
2022/08/07 03:48:44;;;;;;;34.65;14.05;;;;;;;21.37;65.36;100218.25;4987811;28;20054;-74
2022/08/07 03:51:31;;;;;;;38.20;15.40;;;;;;;21.11;65.42;100178.91;4977003;28;20112;-74
2022/08/07 03:54:14;;;;;;;39.70;16.35;;;;;;;21.32;65.40;100201.44;4979946;28;20045;-72
2022/08/07 03:57:03;;;;;;;30.35;14.52;;;;;;;21.46;65.18;100218.91;4979190;28;20065;-71
2022/08/07 03:59:33;;;;;;;31.77;15.48;;;;;;;21.36;65.29;100219.44;4984207;28;20614;-72
2022/08/07 04:02:00;;;;;;;39.75;16.88;;;;;;;21.44;65.38;100221.31;4984555;28;20090;-72
2022/08/07 04:04:27;;;;;;;34.35;14.68;;;;;;;21.39;65.65;100224.38;5032376;28;20517;-73
2022/08/07 04:06:58;;;;;;;43.03;15.25;;;;;;;21.26;65.50;100205.72;5042639;28;20592;-74
2022/08/07 04:09:28;;;;;;;38.03;15.52;;;;;;;21.56;65.11;100228.09;5047281;28;20049;-73
2022/08/07 04:12:15;;;;;;;34.35;15.05;;;;;;;21.57;65.46;100238.28;5049025;28;20048;-74
2022/08/07 04:14:56;;;;;;;31.27;15.65;;;;;;;21.20;65.29;100187.31;5043510;28;20509;-72
2022/08/07 04:17:26;;;;;;;38.53;15.50;;;;;;;21.18;64.93;100195.34;5044572;28;20500;-72
2022/08/07 04:20:13;;;;;;;37.13;16.10;;;;;;;21.47;65.12;100254.66;5046247;28;20056;-73
2022/08/07 04:22:42;;;;;;;42.40;15.82;;;;;;;21.48;65.26;100238.44;5041368;28;20045;-73
2022/08/07 04:25:22;;;;;;;38.83;15.93;;;;;;;21.60;64.74;100251.75;5041755;28;20044;-74
2022/08/07 04:27:54;;;;;;;38.55;13.98;;;;;;;21.53;64.77;100239.00;5040718;28;20389;-73
2022/08/07 04:30:26;;;;;;;38.28;15.98;;;;;;;21.57;65.15;100232.59;5045334;28;20182;-74
2022/08/07 04:33:15;;;;;;;41.22;17.48;;;;;;;21.67;64.90;100235.72;5047169;28;20394;-74
2022/08/07 04:35:46;;;;;;;42.70;19.27;;;;;;;21.28;64.96;100172.94;5046368;28;20139;-75
2022/08/07 04:38:17;;;;;;;48.45;19.63;;;;;;;21.43;64.91;100202.59;5046262;28;20516;-73
2022/08/07 04:40:45;;;;;;;52.38;17.65;;;;;;;21.41;64.81;100193.63;5045902;28;20132;-74
2022/08/07 04:43:24;;;;;;;44.63;17.02;;;;;;;21.57;64.65;100224.88;5043189;28;20520;-73
2022/08/07 04:46:30;;;;;;;44.60;17.67;;;;;;;21.58;64.55;100235.09;5036979;28;20044;-74
2022/08/07 04:49:13;;;;;;;43.60;17.80;;;;;;;21.54;64.67;100248.38;5052714;28;20049;-73
2022/08/07 04:52:09;;;;;;;;;;;;;;;21.44;65.12;100232.66;5051595;28;20048;-74
2022/08/07 04:54:54;;;;;;;40.00;16.58;;;;;;;21.48;65.00;100239.28;5055124;28;19967;-74
2022/08/07 04:57:35;;;;;;;45.00;17.58;;;;;;;21.39;64.75;100235.75;5047072;28;20057;-72
2022/08/07 05:00:45;;;;;;;30.55;14.60;;;;;;;21.26;64.98;100236.94;5043424;28;20057;-74
2022/08/07 05:03:30;;;;;;;40.72;16.15;;;;;;;21.31;65.16;100245.22;5035008;28;20053;-72
2022/08/07 05:06:22;;;;;;;38.88;15.82;;;;;;;20.81;65.24;100186.94;5042113;28;20052;-73
2022/08/07 05:09:17;;;;;;;41.28;16.70;;;;;;;20.97;65.31;100232.44;5035446;28;20073;-74
2022/08/07 05:12:08;;;;;;;37.45;16.38;;;;;;;20.97;65.63;100238.13;5047710;28;20501;-74
2022/08/07 05:14:39;;;;;;;38.63;16.60;;;;;;;20.90;65.83;100247.25;5047485;28;20099;-74
2022/08/07 05:17:24;;;;;;;46.35;17.58;;;;;;;20.71;65.63;100238.50;5045243;28;20056;-74
2022/08/07 05:20:15;;;;;;;40.83;16.52;;;;;;;20.71;65.77;100238.50;5046250;28;20080;-73
2022/08/07 05:22:46;;;;;;;39.90;17.05;;;;;;;20.82;65.81;100254.72;5048596;28;20072;-74
2022/08/07 05:25:16;;;;;;;43.33;16.48;;;;;;;20.80;66.12;100237.19;5044436;28;20409;-73
2022/08/07 05:28:03;;;;;;;;;;;;;;;20.87;65.98;100253.63;5046688;28;20048;-74
2022/08/07 05:30:49;;;;;;;42.03;15.82;;;;;;;21.01;65.73;100251.22;5050901;28;20289;-73
2022/08/07 05:33:18;;;;;;;38.85;17.48;;;;;;;20.94;66.14;100233.16;5046740;28;20090;-74
2022/08/07 05:35:50;;;;;;;47.00;17.80;;;;;;;20.88;66.26;100246.75;5050402;28;20057;-74
2022/08/07 05:38:21;;;;;;;38.33;16.25;;;;;;;20.96;66.22;100245.00;5052948;28;20297;-73
2022/08/07 05:41:09;;;;;;;39.85;17.30;;;;;;;21.01;66.00;100239.88;5046912;28;20049;-73
2022/08/07 05:43:45;;;;;;;44.03;17.40;;;;;;;21.05;65.37;100237.97;5042767;28;20175;-74
2022/08/07 05:46:33;;;;;;;39.30;16.25;;;;;;;21.17;65.64;100257.00;5044788;28;20049;-74
2022/08/07 05:49:03;;;;;;;37.58;15.00;;;;;;;21.15;65.86;100242.31;5048113;28;20064;-74
2022/08/07 05:51:40;;;;;;;38.88;15.50;;;;;;;21.25;65.31;100250.31;5048090;28;20052;-74
2022/08/07 05:54:08;;;;;;;35.28;15.93;;;;;;;21.12;65.49;100226.00;5050904;28;20041;-74
2022/08/07 05:56:57;;;;;;;42.67;16.13;;;;;;;21.29;65.27;100267.47;5047694;28;20513;-74
2022/08/07 05:59:25;;;;;;;40.67;15.15;;;;;;;21.27;65.34;100256.50;5047404;28;20057;-74
2022/08/07 06:01:55;;;;;;;39.08;15.23;;;;;;;20.80;64.96;100180.44;5043347;28;20059;-72
2022/08/07 06:04:23;;;;;;;37.27;15.23;;;;;;;21.55;64.86;100277.59;5042523;28;20048;-74
2022/08/07 06:06:58;;;;;;;37.72;16.20;;;;;;;21.65;64.60;100268.56;5040912;28;20655;-73
2022/08/07 06:09:31;;;;;;;34.97;15.13;;;;;;;21.61;64.48;100259.13;5046382;28;20064;-72
2022/08/07 06:12:18;;;;;;;38.90;14.95;;;;;;;21.69;64.53;100267.47;5046076;28;20049;-75
2022/08/07 06:14:57;;;;;;;38.92;15.80;;;;;;;21.75;64.75;100270.88;5039200;28;20147;-71
2022/08/07 06:17:32;;;;;;;34.97;16.17;;;;;;;21.51;64.51;100235.72;5046034;28;20833;-71
2022/08/07 06:20:05;;;;;;;33.10;15.10;;;;;;;21.85;64.23;100273.19;5047560;28;20056;-71
2022/08/07 06:22:52;;;;;;;29.42;14.10;;;;;;;21.72;64.31;100243.19;5048261;28;20049;-72
2022/08/07 06:25:40;;;;;;;38.25;15.13;;;;;;;22.00;63.98;100272.38;5045303;28;20075;-72
2022/08/07 06:28:20;;;;;;;32.55;14.55;;;;;;;22.01;63.63;100274.03;5047609;28;20083;-70
2022/08/07 06:30:54;;;;;;;35.47;15.63;;;;;;;21.83;63.91;100238.59;5046949;28;20499;-72
2022/08/07 06:33:25;;;;;;;32.55;15.45;;;;;;;21.80;63.86;100255.56;5048723;28;20520;-74
2022/08/07 06:35:52;;;;;;;39.05;16.90;;;;;;;21.75;63.71;100259.50;5051373;28;20517;-71
2022/08/07 06:38:39;;;;;;;39.47;16.08;;;;;;;21.45;64.26;100222.94;5049386;28;20053;-72
2022/08/07 06:41:31;;;;;;;38.90;15.00;;;;;;;21.43;64.26;100230.16;5038692;28;20064;-71
2022/08/07 06:44:20;;;;;;;40.65;16.55;;;;;;;21.21;64.15;100167.03;5039974;28;20511;-71
2022/08/07 06:46:50;;;;;;;33.50;15.85;;;;;;;21.74;64.42;100269.22;5044711;28;20053;-78
2022/08/07 06:49:37;;;;;;;35.35;15.50;;;;;;;21.86;63.88;100272.00;5047848;28;20535;-77
2022/08/07 06:52:19;;;;;;;40.30;15.98;;;;;;;21.50;64.20;100211.34;5047711;28;20059;-77
2022/08/07 06:55:09;;;;;;;40.70;17.38;;;;;;;21.96;63.72;100280.00;5047291;28;20488;-82
2022/08/07 06:58:03;;;;;;;42.80;17.55;;;;;;;21.79;63.84;100263.28;5047739;28;20524;-73
2022/08/07 07:00:37;;;;;;;45.13;16.10;;;;;;;21.89;64.04;100296.84;5039527;28;20048;-72
2022/08/07 07:03:09;;;;;;;34.67;16.15;;;;;;;21.79;63.83;100282.34;5037793;28;20136;-74
2022/08/07 07:05:43;;;;;;;40.22;16.52;;;;;;;21.93;64.20;100294.13;5040908;28;20135;-74
2022/08/07 07:08:30;;;;;;;44.17;17.13;;;;;;;21.55;64.11;100244.34;5041903;28;21172;-73
2022/08/07 07:11:03;;;;;;;46.05;15.50;;;;;;;21.55;63.88;100235.81;5045296;28;20069;-77
2022/08/07 07:13:46;;;;;;;41.88;16.05;;;;;;;21.72;63.77;100265.91;5043283;28;20789;-78
2022/08/07 07:16:33;;;;;;;41.85;17.60;;;;;;;21.63;63.42;100234.00;5037371;28;20068;-87
2022/08/07 07:19:29;;;;;;;45.75;17.35;;;;;;;21.88;63.78;100271.63;5042395;28;20053;-78
2022/08/07 07:22:17;;;;;;;45.90;17.85;;;;;;;21.94;63.47;100285.19;5037296;28;20049;-79
2022/08/07 07:25:06;;;;;;;33.60;15.40;;;;;;;22.03;63.49;100304.13;5041279;28;20528;-87
2022/08/07 07:27:59;;;;;;;45.90;16.35;;;;;;;22.11;63.71;100301.09;5049282;28;20061;-88
2022/08/07 07:30:35;;;;;;;41.30;16.25;;;;;;;22.18;63.67;100301.31;5046797;28;20048;-85
2022/08/07 07:33:09;;;;;;;41.38;16.52;;;;;;;22.13;63.28;100295.06;5050261;28;20045;-79
2022/08/07 07:35:40;;;;;;;39.60;17.27;;;;;;;21.97;63.49;100287.31;5043211;28;20057;-79
2022/08/07 07:38:27;;;;;;;;;;;;;;;22.17;63.63;100315.91;5048321;28;20056;-77
2022/08/07 07:41:00;;;;;;;43.72;17.23;;;;;;;22.08;63.69;100295.31;5046430;28;19928;-73
2022/08/07 07:43:30;;;;;;;39.00;17.00;;;;;;;21.56;63.56;100211.06;5049160;28;20048;-81
2022/08/07 07:46:18;;;;;;;43.30;15.82;;;;;;;22.21;63.25;100311.97;5043568;28;20050;-70
2022/08/07 07:49:08;;;;;;;39.88;17.25;;;;;;;22.18;63.66;100297.66;5051383;28;20256;-71
2022/08/07 07:51:56;;;;;;;;;;;;;;;22.30;63.31;100314.66;5038002;28;20505;-73
2022/08/07 07:54:27;;;;;;;38.40;16.77;;;;;;;22.08;63.08;100278.25;5036203;28;19940;-74
2022/08/07 07:56:56;;;;;;;43.17;17.17;;;;;;;22.22;63.11;100307.09;5044593;28;20133;-73
2022/08/07 07:59:25;;;;;;;39.97;17.05;;;;;;;22.31;63.23;100332.53;5044112;28;20048;-73
2022/08/07 08:02:15;;;;;;;44.50;18.88;;;;;;;22.27;63.14;100332.44;5045442;28;20063;-73
2022/08/07 08:05:04;;;;;;;39.08;16.25;;;;;;;22.16;63.28;100315.09;5045410;28;20041;-73
2022/08/07 08:07:41;;;;;;;43.20;18.05;;;;;;;22.20;63.23;100326.56;5035358;28;20413;-71
2022/08/07 08:10:29;;;;;;;43.95;17.15;;;;;;;22.23;63.54;100331.53;5039297;28;20067;-72
2022/08/07 08:13:07;;;;;;;38.05;16.20;;;;;;;21.99;63.11;100287.78;5041416;28;20111;-73
2022/08/07 08:15:42;;;;;;;47.33;18.88;;;;;;;22.31;62.81;100339.06;5040890;28;20564;-73
2022/08/07 08:18:28;;;;;;;46.13;18.17;;;;;;;22.30;63.30;100337.41;5037025;28;20140;-71
2022/08/07 08:21:00;;;;;;;42.38;17.83;;;;;;;22.07;63.20;100299.38;5040611;28;20154;-73
2022/08/07 08:29:07;;;;;;;36.15;15.45;;;;;;;22.60;62.48;100342.66;5040443;28;20146;-79
2022/08/07 08:31:37;;;;;;;43.47;15.82;;;;;;;22.26;62.66;100290.97;5042179;28;20052;-79
2022/08/07 08:34:25;;;;;;;36.85;15.70;;;;;;;22.52;62.42;100324.56;5042542;28;20128;-77
2022/08/07 08:36:59;;;;;;;36.45;14.88;;;;;;;22.86;62.20;100347.78;5041318;28;20053;-78
2022/08/07 08:39:27;;;;;;;37.40;15.30;;;;;;;22.95;61.92;100334.22;5039865;28;20508;-75
2022/08/07 08:42:30;;;;;;;38.65;15.27;;;;;;;22.87;61.89;100299.03;5038903;28;20405;-73
2022/08/07 08:45:17;;;;;;;31.20;14.85;;;;;;;23.22;62.02;100343.81;5039845;28;20054;-82
2022/08/07 08:48:08;;;;;;;28.23;14.10;;;;;;;23.00;61.71;100344.50;5039911;28;20072;-73
2022/08/07 08:51:05;;;;;;;32.65;15.00;;;;;;;22.94;61.97;100347.63;5034851;28;20057;-71
2022/08/07 08:54:01;;;;;;;29.38;13.32;;;;;;;23.06;61.99;100351.56;5036624;28;20386;-72
2022/08/07 08:56:42;;;;;;;28.00;14.13;;;;;;;22.99;61.78;100331.44;5040021;28;20102;-72
2022/08/07 08:59:24;;;;;;;32.22;13.73;;;;;;;23.01;61.75;100354.69;5040614;28;20053;-73
2022/08/07 09:02:24;;;;;;;32.05;14.00;;;;;;;22.87;61.42;100352.28;5048639;28;20052;-73
2022/08/07 09:05:25;;;;;;;25.05;11.68;;;;;;;22.78;61.88;100352.47;5054480;28;20045;-72
2022/08/07 09:08:30;;;;;;;26.17;10.30;;;;;;;22.84;61.74;100356.72;5052290;28;20044;-73
2022/08/07 09:11:28;;;;;;;19.63;9.82;;;;;;;22.37;62.20;100314.84;5050194;28;20791;-72
2022/08/07 09:14:53;;;;;;;20.58;8.85;;;;;;;22.73;62.06;100361.28;5039174;28;20041;-71
2022/08/07 09:17:24;;;;;;;;;;;;;;;22.71;61.81;100355.16;4988847;28;20050;-72
2022/08/07 09:20:17;;;;;;;18.17;8.65;;;;;;;22.63;61.67;100350.44;5045312;28;19931;-71
2022/08/07 09:23:08;;;;;;;13.98;7.88;;;;;;;22.05;62.20;100278.97;5047284;28;20512;-73
2022/08/07 09:26:06;;;;;;;18.10;8.93;;;;;;;22.52;62.21;100360.72;5042052;28;20416;-72
2022/08/07 09:28:43;;;;;;;17.20;7.75;;;;;;;22.45;62.33;100362.19;5052433;28;20574;-73
2022/08/07 09:31:44;;;;;;;20.20;8.02;;;;;;;22.53;62.35;100339.63;5051649;28;20409;-73
2022/08/07 09:34:30;;;;;;;21.33;8.07;;;;;;;22.39;62.72;100331.53;5050425;28;20107;-72
2022/08/07 09:37:03;;;;;;;15.68;8.45;;;;;;;22.49;62.29;100339.53;5059488;28;20099;-73
2022/08/07 09:40:04;;;;;;;18.65;8.90;;;;;;;22.69;62.39;100354.69;5052221;28;20052;-73
2022/08/07 09:42:59;;;;;;;18.85;8.45;;;;;;;22.63;62.18;100367.53;5033069;28;20429;-73
2022/08/07 09:45:53;;;;;;;18.17;9.50;;;;;;;22.44;62.39;100366.25;5048405;28;20087;-73
2022/08/07 09:49:01;;;;;;;18.30;8.20;;;;;;;22.37;62.60;100371.75;5046143;28;20077;-73
2022/08/07 09:52:15;;;;;;;15.65;7.97;;;;;;;22.32;62.90;100380.53;5033882;28;20060;-72
2022/08/07 09:55:08;;;;;;;16.05;8.35;;;;;;;22.39;62.57;100386.44;5051144;28;20049;-73
2022/08/07 09:58:19;;;;;;;21.35;8.32;;;;;;;22.50;62.70;100377.38;5045319;28;20128;-73
2022/08/07 10:01:01;;;;;;;16.77;7.43;;;;;;;22.59;62.39;100380.84;5053436;28;20053;-73
2022/08/07 10:03:47;;;;;;;18.23;7.90;;;;;;;22.73;62.46;100389.75;5048506;28;20041;-73
2022/08/07 10:07:01;;;;;;;19.45;8.85;;;;;;;22.62;62.13;100377.28;5048039;28;20420;-72
2022/08/07 10:09:51;;;;;;;16.25;7.95;;;;;;;22.51;62.73;100384.69;5047070;28;20063;-72
2022/08/07 10:12:35;;;;;;;13.55;6.93;;;;;;;22.68;62.23;100393.72;5048597;28;20049;-72
2022/08/07 10:15:33;;;;;;;19.63;7.93;;;;;;;22.66;62.47;100383.88;5045345;28;20076;-72
2022/08/07 10:18:21;;;;;;;14.07;7.38;;;;;;;22.32;62.25;100328.50;5051824;28;20053;-72
2022/08/07 10:21:01;;;;;;;16.60;8.52;;;;;;;22.74;62.30;100384.91;5061081;28;20568;-72
2022/08/07 10:23:46;;;;;;;16.33;7.28;;;;;;;22.81;61.85;100396.47;5050719;28;20076;-72
2022/08/07 10:26:43;;;;;;;13.65;6.68;;;;;;;22.89;62.02;100393.44;5048578;28;20064;-72
2022/08/07 10:29:18;;;;;;;14.55;6.45;;;;;;;22.87;61.63;100387.28;5052967;28;20099;-72
2022/08/07 10:32:17;;;;;;;13.48;7.00;;;;;;;22.90;62.12;100386.53;5050913;28;20077;-73
2022/08/07 10:35:29;;;;;;;16.67;6.72;;;;;;;22.90;61.70;100380.00;5010830;28;20098;-73
2022/08/07 10:38:49;;;;;;;15.35;6.80;;;;;;;22.69;61.90;100389.66;5048005;28;20603;-72
2022/08/07 10:41:35;;;;;;;12.32;6.63;;;;;;;22.60;61.95;100382.50;5051981;28;20045;-73
2022/08/07 10:44:23;;;;;;;14.88;6.38;;;;;;;22.63;62.17;100376.91;5050944;28;20061;-72
2022/08/07 10:47:19;;;;;;;16.55;6.00;;;;;;;22.56;62.13;100385.25;5051687;28;20056;-72
2022/08/07 10:50:20;;;;;;;14.57;6.63;;;;;;;22.59;61.74;100350.34;5049469;28;20055;-73
2022/08/07 10:53:09;;;;;;;11.75;6.47;;;;;;;22.96;61.52;100377.75;5045634;28;20136;-73
2022/08/07 10:55:49;;;;;;;11.50;6.10;;;;;;;23.05;61.79;100387.75;5044378;28;20056;-71
2022/08/07 10:58:50;;;;;;;12.85;6.55;;;;;;;22.96;61.38;100358.63;5049139;28;20045;-72
2022/08/07 11:01:47;;;;;;;10.80;5.72;;;;;;;22.78;61.73;100378.09;5032854;28;20044;-72
2022/08/07 11:04:58;;;;;;;12.00;6.43;;;;;;;22.72;61.96;100365.34;5036097;28;20049;-73
2022/08/07 11:07:56;;;;;;;14.20;8.27;;;;;;;23.00;61.91;100384.34;5050634;28;20084;-74
2022/08/07 11:10:41;;;;;;;21.98;7.68;;;;;;;23.14;61.60;100381.84;5043011;28;20044;-73
2022/08/07 11:13:35;;;;;;;12.73;6.47;;;;;;;23.37;61.09;100377.13;5046486;28;20556;-71
2022/08/07 11:16:29;;;;;;;11.07;4.85;;;;;;;22.87;61.12;100320.94;5049380;28;20505;-71
2022/08/07 11:19:01;;;;;;;10.43;4.97;;;;;;;23.11;61.41;100371.19;5043690;28;20486;-71
2022/08/07 11:21:38;;;;;;;16.42;5.47;;;;;;;23.28;61.15;100376.53;5049860;28;20145;-73
2022/08/07 11:24:31;;;;;;;13.63;6.75;;;;;;;23.28;60.97;100352.88;5044842;28;20045;-74
2022/08/07 11:27:16;;;;;;;11.82;6.40;;;;;;;23.60;60.65;100371.53;5035655;28;20056;-73
2022/08/07 11:29:54;;;;;;;15.80;6.03;;;;;;;23.75;60.01;100372.69;5047535;28;20079;-71
2022/08/07 11:32:57;;;;;;;14.77;5.82;;;;;;;23.88;60.02;100364.81;5038475;28;20398;-73
2022/08/07 11:35:33;;;;;;;19.50;7.57;;;;;;;23.93;59.32;100338.03;5046493;28;20047;-74
2022/08/07 11:38:29;;;;;;;12.52;6.55;;;;;;;24.07;59.06;100332.63;5033349;28;20071;-71
2022/08/07 11:41:02;;;;;;;14.02;7.28;;;;;;;24.19;59.03;100369.53;5039451;28;20053;-72
2022/08/07 11:43:51;;;;;;;17.42;6.90;;;;;;;23.98;58.89;100338.56;5035694;28;20521;-70
2022/08/07 11:47:05;;;;;;;14.77;7.03;;;;;;;24.05;59.08;100352.97;5039118;28;20524;-71
2022/08/07 11:50:11;;;;;;;15.60;6.20;;;;;;;23.84;59.50;100350.50;5031179;28;20044;-69
2022/08/07 11:53:15;;;;;;;15.10;7.10;;;;;;;23.68;59.31;100301.28;5033654;28;20052;-70
2022/08/07 11:56:13;;;;;;;10.02;5.97;;;;;;;24.18;59.23;100361.38;5040248;28;20126;-67
2022/08/07 11:59:15;;;;;;;10.45;5.30;;;;;;;24.20;58.93;100347.53;5039615;28;20080;-68
2022/08/07 12:02:14;;;;;;;9.70;5.13;;;;;;;23.99;59.08;100336.53;5041843;28;20662;-67
2022/08/07 12:05:08;;;;;;;10.88;5.85;;;;;;;24.10;58.87;100360.38;5047990;28;20049;-69
2022/08/07 12:07:57;;;;;;;10.52;5.15;;;;;;;24.13;58.75;100342.50;5041730;28;20132;-70
2022/08/07 12:10:41;;;;;;;9.95;4.68;;;;;;;24.38;58.16;100353.59;5044845;28;20075;-68
2022/08/07 12:13:30;;;;;;;9.38;4.60;;;;;;;24.21;58.17;100300.69;5043249;28;20068;-68
2022/08/07 12:16:10;;;;;;;9.88;5.00;;;;;;;24.45;58.04;100319.50;5016103;28;20071;-68
2022/08/07 12:19:19;;;;;;;8.50;4.57;;;;;;;24.50;58.13;100324.88;5040350;28;20462;-69
2022/08/07 12:21:50;;;;;;;10.30;4.47;;;;;;;24.70;57.33;100337.06;5028965;28;20073;-83
2022/08/07 12:28:08;;;;;;;6.95;4.05;;;;;;;24.81;56.90;100326.63;5041641;28;21198;-78
2022/08/07 12:30:41;;;;;;;6.25;3.80;;;;;;;24.68;57.29;100334.56;5039767;28;20053;-89
2022/08/07 12:33:24;;;;;;;6.13;3.72;;;;;;;24.36;57.32;100259.78;5035546;28;20512;-74
2022/08/07 12:35:58;;;;;;;6.03;3.72;;;;;;;24.39;57.06;100241.88;5042656;28;20464;-72